createdAt,value
2018-06-10T00:03:45.872Z,71
2018-06-10T00:09:15.058Z,71
2018-06-10T00:14:44.327Z,71
2018-06-10T00:20:13.597Z,71
2018-06-10T00:25:43.916Z,71
2018-06-10T00:31:13.121Z,71
2018-06-10T00:36:43.364Z,71
2018-06-10T00:42:13.618Z,71
2018-06-10T00:47:43.263Z,71
2018-06-10T00:53:13.224Z,71
2018-06-10T00:58:43.418Z,71
2018-06-10T01:04:12.654Z,71
2018-06-10T01:09:42.946Z,71
2018-06-10T01:15:12.156Z,71
2018-06-10T01:20:41.397Z,71
2018-06-10T01:26:11.641Z,71
2018-06-10T01:31:40.816Z,71
2018-06-10T01:37:11.021Z,72
2018-06-10T01:42:40.209Z,72
2018-06-10T01:48:10.470Z,72
2018-06-10T01:53:39.488Z,72
2018-06-10T01:59:08.659Z,72
2018-06-10T02:04:38.824Z,72
2018-06-10T02:10:09.152Z,72
2018-06-10T02:15:39.060Z,72
2018-06-10T02:21:08.227Z,72
2018-06-10T02:26:37.386Z,72
2018-06-10T02:32:07.427Z,72
2018-06-10T02:37:36.572Z,72
2018-06-10T02:43:05.690Z,72
2018-06-10T02:48:34.767Z,73
2018-06-10T02:54:03.872Z,73
2018-06-10T02:59:33.975Z,73
2018-06-10T03:05:03.082Z,73
2018-06-10T03:10:33.191Z,73
2018-06-10T03:16:03.274Z,73
2018-06-10T03:21:32.588Z,73
2018-06-10T03:27:01.520Z,73
2018-06-10T03:32:31.638Z,73
2018-06-10T03:38:00.801Z,73
2018-06-10T03:43:30.876Z,73
2018-06-10T03:49:00.072Z,73
2018-06-10T03:54:30.159Z,73
2018-06-10T03:59:59.233Z,73
2018-06-10T04:05:29.370Z,73
2018-06-10T04:10:59.673Z,73
2018-06-10T04:16:29.626Z,74
2018-06-10T04:21:59.718Z,74
2018-06-10T04:27:28.887Z,74
2018-06-10T04:32:57.994Z,74
2018-06-10T04:38:28.175Z,75
2018-06-10T04:43:57.261Z,75
2018-06-10T04:49:27.413Z,75
2018-06-10T04:54:56.628Z,75
2018-06-10T05:00:25.707Z,76
2018-06-10T05:05:55.889Z,76
2018-06-10T05:11:24.938Z,76
2018-06-10T05:16:55.096Z,76
2018-06-10T05:22:25.214Z,76
2018-06-10T05:27:55.473Z,76
2018-06-10T05:33:25.469Z,76
2018-06-10T05:38:55.579Z,76
2018-06-10T05:44:24.700Z,76
2018-06-10T05:49:53.815Z,76
2018-06-10T05:55:23.963Z,77
2018-06-10T06:00:54.125Z,77
2018-06-10T06:06:24.368Z,77
2018-06-10T06:11:54.397Z,77
2018-06-10T06:17:23.644Z,77
2018-06-10T06:22:53.764Z,77
2018-06-10T06:28:23.848Z,78
2018-06-10T06:33:54.005Z,78
2018-06-10T06:39:24.276Z,78
2018-06-10T06:44:53.425Z,78
2018-06-10T06:50:23.643Z,78
2018-06-10T06:55:53.850Z,78
2018-06-10T07:01:23.071Z,78
2018-06-10T07:06:52.365Z,78
2018-06-10T07:12:22.520Z,78
2018-06-10T07:17:51.801Z,78
2018-06-10T07:23:21.227Z,78
2018-06-10T07:28:51.430Z,78
2018-06-10T07:34:21.743Z,78
2018-06-10T07:39:52.085Z,77
2018-06-10T07:45:22.408Z,77
2018-06-10T07:50:51.772Z,77
2018-06-10T07:56:22.107Z,78
2018-06-10T08:01:51.409Z,78
2018-06-10T08:07:20.751Z,78
2018-06-10T08:12:51.049Z,78
2018-06-10T08:18:21.276Z,79
2018-06-10T08:23:51.510Z,78
2018-06-10T08:29:21.732Z,79
2018-06-10T08:34:50.931Z,79
2018-06-10T08:40:20.158Z,78
2018-06-10T08:45:50.324Z,78
2018-06-10T08:51:20.520Z,78
2018-06-10T08:56:50.678Z,78
2018-06-10T08:56:51.110Z,78
2018-06-10T09:02:19.833Z,79
2018-06-10T09:07:48.977Z,79
2018-06-10T09:13:18.128Z,79
2018-06-10T09:18:47.320Z,79
2018-06-10T09:24:17.436Z,80
2018-06-10T09:29:46.622Z,80
2018-06-10T09:35:16.333Z,80
2018-06-10T09:40:45.687Z,80
2018-06-10T09:46:14.820Z,80
2018-06-10T09:51:43.856Z,80
2018-06-10T09:57:13.953Z,80
2018-06-10T10:02:44.066Z,80
2018-06-10T10:08:13.078Z,80
2018-06-10T10:13:43.163Z,80
2018-06-10T10:19:13.231Z,80
2018-06-10T10:24:43.334Z,80
2018-06-10T10:30:12.638Z,80
2018-06-10T10:35:41.581Z,80
2018-06-10T10:41:11.628Z,80
2018-06-10T10:46:40.937Z,80
2018-06-10T10:52:09.829Z,81
2018-06-10T10:57:39.913Z,81
2018-06-10T11:03:10.025Z,81
2018-06-10T11:08:39.166Z,81
2018-06-10T11:14:08.277Z,81
2018-06-10T11:19:38.396Z,81
2018-06-10T11:25:08.577Z,82
2018-06-10T11:30:37.639Z,82
2018-06-10T11:36:07.747Z,82
2018-06-10T11:41:37.769Z,83
2018-06-10T11:47:06.898Z,83
2018-06-10T11:52:35.931Z,83
2018-06-10T11:58:06.027Z,83
2018-06-10T12:03:35.150Z,83
2018-06-10T12:09:05.175Z,83
2018-06-10T12:14:34.281Z,83
2018-06-10T12:20:04.459Z,83
2018-06-10T12:25:34.465Z,84
2018-06-10T12:31:03.484Z,84
2018-06-10T12:36:33.550Z,84
2018-06-10T12:42:03.613Z,83
2018-06-10T12:47:33.677Z,83
2018-06-10T12:53:03.802Z,83
2018-06-10T12:58:33.915Z,83
2018-06-10T13:04:04.005Z,83
2018-06-10T13:09:34.307Z,82
2018-06-10T13:15:04.409Z,82
2018-06-10T13:20:33.612Z,82
2018-06-10T13:26:03.004Z,82
2018-06-10T13:31:33.157Z,82
2018-06-10T13:37:03.373Z,82
2018-06-10T13:42:32.654Z,82
2018-06-10T13:48:03.013Z,82
2018-06-10T13:53:33.175Z,82
2018-06-10T13:59:03.426Z,81
2018-06-10T14:04:33.667Z,81
2018-06-10T14:10:03.078Z,81
2018-06-10T14:15:32.363Z,81
2018-06-10T14:21:02.638Z,81
2018-06-10T14:26:31.897Z,81
2018-06-10T14:32:02.162Z,81
2018-06-10T14:37:31.414Z,80
2018-06-10T14:43:01.740Z,80
2018-06-10T14:48:31.076Z,80
2018-06-10T14:54:01.365Z,80
2018-06-10T14:59:31.702Z,80
2018-06-10T15:05:01.023Z,79
2018-06-10T15:10:30.351Z,79
2018-06-10T15:16:00.002Z,78
2018-06-10T15:21:29.148Z,78
2018-06-10T15:26:59.661Z,78
2018-06-10T15:32:28.922Z,78
2018-06-10T15:37:58.326Z,78
2018-06-10T15:43:28.577Z,78
2018-06-10T15:48:58.920Z,79
2018-06-10T15:54:29.267Z,78
2018-06-10T15:59:58.577Z,79
2018-06-10T16:05:28.794Z,79
2018-06-10T16:10:59.018Z,79
2018-06-10T16:16:29.246Z,79
2018-06-10T16:21:58.448Z,79
2018-06-10T16:27:28.784Z,78
2018-06-10T16:32:59.002Z,78
2018-06-10T16:38:28.284Z,78
2018-06-10T16:43:58.473Z,78
2018-06-10T16:49:28.716Z,78
2018-06-10T16:54:58.980Z,78
2018-06-10T17:00:29.211Z,78
2018-06-10T17:05:59.507Z,78
2018-06-10T17:11:29.668Z,78
2018-06-10T17:16:58.861Z,78
2018-06-10T17:22:27.998Z,78
2018-06-10T17:27:58.276Z,78
2018-06-10T17:33:28.358Z,78
2018-06-10T17:38:58.568Z,78
2018-06-10T17:44:27.603Z,78
2018-06-10T17:49:56.823Z,78
2018-06-10T17:55:25.837Z,78
2018-06-10T18:00:54.956Z,78
2018-06-10T18:06:23.992Z,78
2018-06-10T18:11:53.073Z,78
2018-06-10T18:17:23.058Z,78
2018-06-10T18:22:52.180Z,78
2018-06-10T18:28:21.129Z,78
2018-06-10T18:33:50.199Z,78
2018-06-10T18:39:20.182Z,78
2018-06-10T18:44:49.244Z,78
2018-06-10T18:50:18.214Z,77
2018-06-10T18:55:48.208Z,77
2018-06-10T19:01:17.207Z,77
2018-06-10T19:06:47.184Z,77
2018-06-10T19:12:17.147Z,77
2018-06-10T19:17:47.133Z,77
2018-06-10T19:23:16.476Z,77
2018-06-10T19:28:46.091Z,77
2018-06-10T19:34:15.132Z,77
2018-06-10T19:39:45.121Z,76
2018-06-10T19:45:15.080Z,77
2018-06-10T19:50:45.048Z,77
2018-06-10T19:56:15.008Z,76
2018-06-10T20:01:44.001Z,76
2018-06-10T20:07:12.962Z,76
2018-06-10T20:12:42.098Z,76
2018-06-10T20:18:10.964Z,76
2018-06-10T20:23:40.906Z,76
2018-06-10T20:29:09.784Z,76
2018-06-10T20:34:39.720Z,76
2018-06-10T20:40:09.934Z,76
2018-06-10T20:45:39.608Z,76
2018-06-10T20:51:09.537Z,76
2018-06-10T20:56:39.484Z,76
2018-06-10T21:02:08.375Z,76
2018-06-10T21:07:37.341Z,76
2018-06-10T21:13:06.214Z,76
2018-06-10T21:18:36.188Z,76
2018-06-10T21:24:05.128Z,76
2018-06-10T21:29:34.081Z,76
2018-06-10T21:35:04.022Z,76
2018-06-10T21:40:32.996Z,76
2018-06-10T21:40:33.609Z,76
2018-06-10T21:46:01.923Z,76
2018-06-10T21:51:31.800Z,76
2018-06-10T21:57:00.737Z,76
2018-06-10T22:02:30.653Z,77
2018-06-10T22:08:00.568Z,76
2018-06-10T22:13:30.445Z,76
2018-06-10T22:18:59.355Z,76
2018-06-10T22:24:28.297Z,76
2018-06-10T22:29:57.130Z,76
2018-06-10T22:35:26.980Z,75
2018-06-10T22:40:56.941Z,75
2018-06-10T22:46:25.759Z,75
2018-06-10T22:51:55.641Z,75
2018-06-10T22:57:24.451Z,75
2018-06-10T23:02:54.320Z,74
2018-06-10T23:08:23.157Z,74
2018-06-10T23:13:52.992Z,74
2018-06-10T23:19:22.772Z,73
2018-06-10T23:24:51.636Z,73
2018-06-10T23:30:20.622Z,73
2018-06-10T23:35:49.330Z,73
2018-06-10T23:41:19.143Z,73
2018-06-10T23:46:47.902Z,73
2018-06-10T23:52:16.741Z,73
2018-06-10T23:57:46.588Z,73
